Time;durP1;ratioP1;P1;durP2;ratioP2;P2;SDS_P1;SDS_P2;PMS_P1;PMS_P2;Temp;Humidity;BMP_temperature;BMP_pressure;BME280_temperature;BME280_humidity;BME280_pressure;Samples;Min_cycle;Max_cycle;Signal;HPM_P1;HPM_P2
2023/03/25 00:01:12;;;;;;;15.63;6.22;;;;;;;;;;4932744;28;20675;-70
2023/03/25 00:03:41;;;;;;;17.15;6.65;;;;;;;;;;4915334;28;20477;-68
2023/03/25 00:06:09;;;;;;;15.80;6.38;;;;;;;;;;4918441;28;20557;-67
2023/03/25 00:08:39;;;;;;;16.58;6.32;;;;;;;;;;4896221;28;20061;-68
2023/03/25 00:11:07;;;;;;;15.73;6.47;;;;;;;;;;4927920;28;20102;-68
2023/03/25 00:13:36;;;;;;;16.13;6.72;;;;;;;;;;4934178;28;20489;-70
2023/03/25 00:16:06;;;;;;;14.40;6.80;;;;;;;;;;4920350;28;20446;-69
2023/03/25 00:18:33;;;;;;;13.45;6.22;;;;;;;;;;4934850;28;20038;-68
2023/03/25 00:21:02;;;;;;;13.35;5.50;;;;;;;;;;4928168;28;20089;-68
2023/03/25 00:23:31;;;;;;;14.88;6.28;;;;;;;;;;4936691;28;20062;-68
2023/03/25 00:25:59;;;;;;;19.98;6.72;;;;;;;;;;4914928;28;20255;-69
2023/03/25 00:28:30;;;;;;;16.30;6.05;;;;;;;;;;4934423;28;20054;-69
2023/03/25 00:31:05;;;;;;;13.65;5.45;;;;;;;;;;4933928;28;20058;-69
2023/03/25 00:33:34;;;;;;;14.95;6.20;;;;;;;;;;4933037;28;20545;-69
2023/03/25 00:36:03;;;;;;;14.70;5.50;;;;;;;;;;4949332;28;20522;-68
2023/03/25 00:38:36;;;;;;;11.50;4.78;;;;;;;;;;4947208;28;20042;-69
2023/03/25 00:41:13;;;;;;;14.60;6.07;;;;;;;;;;4951704;28;20031;-68
2023/03/25 00:43:44;;;;;;;10.88;4.75;;;;;;;;;;4947624;28;20027;-68
2023/03/25 00:46:16;;;;;;;13.55;4.85;;;;;;;;;;4950297;28;20031;-70
2023/03/25 00:48:44;;;;;;;12.95;5.45;;;;;;;;;;4945926;28;20038;-67
2023/03/25 00:51:20;;;;;;;11.68;4.90;;;;;;;;;;4944576;28;20050;-67
2023/03/25 00:53:53;;;;;;;13.77;5.07;;;;;;;;;;4944700;28;20361;-70
2023/03/25 00:56:24;;;;;;;12.30;4.75;;;;;;;;;;4932888;28;20643;-68
2023/03/25 00:58:50;;;;;;;13.27;5.07;;;;;;;;;;4915408;28;20448;-68
2023/03/25 01:01:16;;;;;;;;;;;;;;;;;;4937034;28;20101;-67
2023/03/25 01:03:44;;;;;;;13.80;5.25;;;;;;;;;;4931420;28;20725;-67
2023/03/25 01:06:16;;;;;;;11.52;4.65;;;;;;;;;;4906759;28;20567;-68
2023/03/25 01:08:46;;;;;;;13.05;5.07;;;;;;;;;;4935197;28;20070;-68
2023/03/25 01:11:18;;;;;;;12.38;5.70;;;;;;;;;;4935883;28;20042;-68
2023/03/25 01:13:46;;;;;;;15.57;6.00;;;;;;;;;;4911081;28;20038;-68
2023/03/25 01:16:13;;;;;;;11.38;4.63;;;;;;;;;;4936706;28;20763;-68
2023/03/25 01:18:43;;;;;;;10.98;4.63;;;;;;;;;;4929475;28;20042;-68
2023/03/25 01:21:11;;;;;;;12.50;4.97;;;;;;;;;;4916524;28;20058;-68
2023/03/25 01:23:38;;;;;;;16.15;5.72;;;;;;;;;;4929886;28;20534;-68
2023/03/25 01:26:06;;;;;;;12.75;5.22;;;;;;;;;;4913918;28;20516;-68
2023/03/25 01:28:34;;;;;;;12.57;5.07;;;;;;;;;;4920544;28;20508;-68
2023/03/25 01:31:07;;;;;;;11.52;4.88;;;;;;;;;;4932124;28;20046;-68
2023/03/25 01:33:38;;;;;;;9.27;4.10;;;;;;;;;;4913557;28;20603;-67
2023/03/25 01:36:09;;;;;;;12.52;5.20;;;;;;;;;;4936841;28;20054;-68
2023/03/25 01:38:40;;;;;;;9.88;4.15;;;;;;;;;;4932451;28;20505;-68
2023/03/25 01:41:08;;;;;;;11.77;5.10;;;;;;;;;;4933886;28;20037;-68
2023/03/25 01:43:34;;;;;;;12.63;5.13;;;;;;;;;;4921538;28;20034;-68
2023/03/25 01:46:00;;;;;;;12.30;5.30;;;;;;;;;;4911468;28;20746;-68
2023/03/25 01:48:31;;;;;;;;;;;;;;;;;;4899274;28;20087;-68
2023/03/25 01:51:02;;;;;;;13.52;4.32;;;;;;;;;;4913436;28;20532;-68
2023/03/25 01:53:35;;;;;;;10.57;4.40;;;;;;;;;;4883342;28;20070;-69
2023/03/25 01:56:05;;;;;;;12.60;4.93;;;;;;;;;;4914466;28;20188;-69
2023/03/25 01:58:35;;;;;;;9.88;4.05;;;;;;;;;;4883547;28;20683;-68
2023/03/25 02:01:05;;;;;;;10.65;4.10;;;;;;;;;;4911920;28;20059;-69
2023/03/25 02:03:36;;;;;;;9.18;3.70;;;;;;;;;;4899573;28;20121;-69
2023/03/25 02:06:07;;;;;;;11.48;4.63;;;;;;;;;;4913407;28;20399;-69
2023/03/25 02:08:38;;;;;;;11.23;4.80;;;;;;;;;;4896693;28;20994;-68
2023/03/25 02:11:07;;;;;;;12.85;4.90;;;;;;;;;;4913579;28;20062;-69
2023/03/25 02:13:36;;;;;;;10.05;4.32;;;;;;;;;;4916738;28;20281;-68
2023/03/25 02:16:21;;;;;;;13.52;4.75;;;;;;;;;;4900661;28;20046;-68
2023/03/25 02:19:00;;;;;;;12.07;4.60;;;;;;;;;;4931537;28;20505;-69
2023/03/25 02:21:49;;;;;;;10.88;4.30;;;;;;;;;;4920529;28;20058;-69
2023/03/25 02:24:36;;;;;;;11.82;4.43;;;;;;;;;;4917673;28;20126;-68
2023/03/25 02:27:16;;;;;;;11.27;3.83;;;;;;;;;;4915528;28;20508;-69
2023/03/25 02:29:47;;;;;;;9.45;3.53;;;;;;;;;;4926036;28;20689;-69
2023/03/25 02:32:26;;;;;;;9.15;3.92;;;;;;;;;;4937821;28;20482;-69
2023/03/25 02:35:13;;;;;;;11.50;3.97;;;;;;;;;;4931773;28;20037;-69
2023/03/25 02:37:59;;;;;;;9.00;3.22;;;;;;;;;;4928371;28;20429;-69
2023/03/25 02:40:26;;;;;;;8.73;3.25;;;;;;;;;;4932336;28;20042;-69
2023/03/25 02:43:13;;;;;;;8.23;2.95;;;;;;;;;;4927308;28;20135;-69
2023/03/25 02:46:00;;;;;;;9.02;3.20;;;;;;;;;;4935371;28;20043;-69
2023/03/25 02:48:32;;;;;;;8.38;3.03;;;;;;;;;;4915195;28;20483;-71
2023/03/25 02:51:01;;;;;;;8.63;3.10;;;;;;;;;;4935291;28;20130;-68
2023/03/25 02:53:32;;;;;;;8.00;2.72;;;;;;;;;;4930872;28;20030;-68
2023/03/25 02:56:07;;;;;;;9.55;3.08;;;;;;;;;;4930136;28;20026;-68
2023/03/25 02:58:35;;;;;;;7.13;2.78;;;;;;;;;;4934216;28;20538;-68
2023/03/25 03:01:02;;;;;;;7.15;2.58;;;;;;;;;;4934535;28;20833;-68
2023/03/25 03:03:28;;;;;;;8.20;2.58;;;;;;;;;;4918901;28;20034;-68
2023/03/25 03:05:56;;;;;;;;;;;;;;;;;;4933278;28;21046;-70
2023/03/25 03:08:23;;;;;;;;;;;;;;;;;;4916879;28;19914;-69
2023/03/25 03:10:50;;;;;;;;;;;;;;;;;;4931894;28;19913;-70
2023/03/25 03:13:37;;;;;;;7.25;2.38;;;;;;;;;;4933265;28;20487;-70
2023/03/25 03:16:10;;;;;;;9.43;2.63;;;;;;;;;;4935571;28;20028;-69
2023/03/25 03:18:43;;;;;;;8.65;2.88;;;;;;;;;;4929397;28;20146;-68
2023/03/25 03:21:13;;;;;;;8.60;2.63;;;;;;;;;;4935532;28;20405;-69
2023/03/25 03:24:00;;;;;;;8.35;2.40;;;;;;;;;;4931087;28;20990;-70
2023/03/25 03:26:36;;;;;;;8.40;2.58;;;;;;;;;;4915705;28;20096;-67
2023/03/25 03:29:22;;;;;;;8.20;2.60;;;;;;;;;;4933796;28;20045;-68
2023/03/25 03:32:01;;;;;;;9.65;2.40;;;;;;;;;;4927683;28;20042;-69
2023/03/25 03:34:33;;;;;;;8.48;2.47;;;;;;;;;;4919534;28;20065;-68
2023/03/25 03:37:03;;;;;;;8.40;2.65;;;;;;;;;;4909420;28;20777;-69
2023/03/25 03:39:36;;;;;;;9.50;2.22;;;;;;;;;;4916152;28;20035;-68
2023/03/25 03:42:21;;;;;;;10.43;3.05;;;;;;;;;;4934354;28;20448;-68
2023/03/25 03:44:53;;;;;;;10.37;2.80;;;;;;;;;;4931408;28;20037;-69
2023/03/25 03:47:27;;;;;;;12.23;3.00;;;;;;;;;;4913587;28;20039;-71
2023/03/25 03:49:59;;;;;;;12.27;2.90;;;;;;;;;;4931920;28;20366;-69
2023/03/25 03:52:37;;;;;;;14.45;3.08;;;;;;;;;;4933768;28;20129;-69
2023/03/25 03:55:12;;;;;;;11.70;3.00;;;;;;;;;;4928658;28;20023;-69
2023/03/25 03:58:06;;;;;;;9.32;2.70;;;;;;;;;;4929176;28;20042;-69
2023/03/25 04:00:37;;;;;;;12.35;3.05;;;;;;;;;;4917149;28;20333;-69
2023/03/25 04:03:16;;;;;;;11.60;3.25;;;;;;;;;;4937468;28;20034;-69
2023/03/25 04:05:58;;;;;;;9.13;2.63;;;;;;;;;;4911812;28;20035;-70
2023/03/25 04:08:33;;;;;;;9.07;2.70;;;;;;;;;;4927716;28;20039;-68
2023/03/25 04:11:07;;;;;;;12.52;3.03;;;;;;;;;;4914680;28;20043;-68
2023/03/25 04:13:36;;;;;;;13.40;2.95;;;;;;;;;;4937556;28;20046;-69
2023/03/25 04:16:04;;;;;;;11.43;2.78;;;;;;;;;;4914594;28;20242;-71
2023/03/25 04:18:32;;;;;;;9.98;3.10;;;;;;;;;;4931972;28;20477;-68
2023/03/25 04:21:00;;;;;;;9.15;2.95;;;;;;;;;;4932926;28;20047;-68
2023/03/25 04:23:29;;;;;;;12.07;2.78;;;;;;;;;;4931843;28;20853;-68
2023/03/25 04:26:01;;;;;;;12.00;2.67;;;;;;;;;;4928062;28;20589;-68
2023/03/25 04:28:27;;;;;;;12.52;2.78;;;;;;;;;;4939234;28;20382;-68
2023/03/25 04:30:59;;;;;;;;;;;;;;;;;;4925232;28;20093;-69
2023/03/25 04:33:30;;;;;;;9.80;2.45;;;;;;;;;;4929485;28;19910;-68
2023/03/25 04:36:00;;;;;;;12.52;3.00;;;;;;;;;;4927563;28;20445;-68
2023/03/25 04:38:28;;;;;;;10.60;2.60;;;;;;;;;;4934704;28;20030;-69
2023/03/25 04:40:57;;;;;;;9.38;2.58;;;;;;;;;;4931498;28;20615;-70
2023/03/25 04:43:27;;;;;;;7.28;2.20;;;;;;;;;;4918061;28;21032;-68
2023/03/25 04:45:58;;;;;;;9.05;2.50;;;;;;;;;;4913875;28;20031;-68
2023/03/25 04:48:28;;;;;;;11.00;2.63;;;;;;;;;;4934062;28;20492;-67
2023/03/25 04:50:57;;;;;;;9.82;2.75;;;;;;;;;;4913616;28;20722;-68
2023/03/25 04:53:26;;;;;;;11.00;2.30;;;;;;;;;;4931873;28;20719;-68
2023/03/25 04:55:55;;;;;;;8.60;2.47;;;;;;;;;;4912619;28;20090;-68
2023/03/25 04:58:23;;;;;;;9.20;2.17;;;;;;;;;;4941025;28;20153;-68
2023/03/25 05:00:50;;;;;;;11.82;2.45;;;;;;;;;;4933487;28;20058;-69
2023/03/25 05:03:23;;;;;;;10.52;2.10;;;;;;;;;;4919050;28;20053;-68
2023/03/25 05:05:51;;;;;;;12.20;2.92;;;;;;;;;;4935368;28;20062;-68
2023/03/25 05:08:22;;;;;;;7.95;2.40;;;;;;;;;;4920951;28;20445;-69
2023/03/25 05:10:51;;;;;;;7.45;2.20;;;;;;;;;;4928665;28;20355;-69
2023/03/25 05:13:18;;;;;;;9.85;2.45;;;;;;;;;;4936928;28;20034;-69
2023/03/25 05:15:45;;;;;;;;;;;;;;;;;;4932209;28;20045;-69
2023/03/25 05:18:14;;;;;;;9.45;2.53;;;;;;;;;;4937810;28;19918;-69
2023/03/25 05:20:49;;;;;;;10.07;2.50;;;;;;;;;;4915517;28;20055;-69
2023/03/25 05:23:17;;;;;;;10.50;2.70;;;;;;;;;;4937097;28;20173;-69
2023/03/25 05:25:46;;;;;;;8.40;2.63;;;;;;;;;;4915311;28;20035;-69
2023/03/25 05:28:13;;;;;;;8.50;2.33;;;;;;;;;;4935445;28;20485;-68
2023/03/25 05:30:40;;;;;;;10.65;2.72;;;;;;;;;;4913476;28;20108;-69
2023/03/25 05:33:09;;;;;;;10.65;2.53;;;;;;;;;;4904898;28;20118;-69
2023/03/25 05:35:35;;;;;;;10.55;2.40;;;;;;;;;;4937459;28;20103;-68
2023/03/25 05:38:04;;;;;;;8.60;2.38;;;;;;;;;;4936251;28;20544;-68
2023/03/25 05:40:33;;;;;;;16.02;3.10;;;;;;;;;;4914754;28;20504;-68
2023/03/25 05:43:02;;;;;;;12.20;2.72;;;;;;;;;;4916623;28;20142;-68
2023/03/25 05:45:30;;;;;;;9.90;2.53;;;;;;;;;;4936774;28;20066;-67
2023/03/25 05:47:59;;;;;;;10.32;2.60;;;;;;;;;;4936346;28;20031;-68
2023/03/25 05:50:27;;;;;;;9.45;2.05;;;;;;;;;;4940383;28;20026;-69
2023/03/25 05:52:56;;;;;;;12.52;2.67;;;;;;;;;;4916120;28;20572;-68
2023/03/25 05:55:25;;;;;;;12.25;2.50;;;;;;;;;;4935606;28;21007;-68
2023/03/25 05:57:55;;;;;;;9.15;2.13;;;;;;;;;;4934773;28;20034;-68
2023/03/25 06:00:32;;;;;;;10.90;2.50;;;;;;;;;;4935949;28;20550;-68
2023/03/25 06:03:00;;;;;;;8.82;2.13;;;;;;;;;;4931383;28;20030;-68
2023/03/25 06:05:28;;;;;;;8.88;2.33;;;;;;;;;;4937065;28;20188;-68
2023/03/25 06:07:56;;;;;;;8.88;2.28;;;;;;;;;;4933786;28;20031;-67
2023/03/25 06:10:33;;;;;;;9.60;2.20;;;;;;;;;;4934518;28;20145;-68
2023/03/25 06:12:59;;;;;;;7.93;1.90;;;;;;;;;;4933811;28;20042;-68
2023/03/25 06:15:32;;;;;;;;;;;;;;;;;;4934656;28;20166;-68
2023/03/25 06:18:09;;;;;;;13.13;2.72;;;;;;;;;;4935064;28;19929;-68
2023/03/25 06:20:38;;;;;;;15.88;2.50;;;;;;;;;;4937354;28;20599;-68
2023/03/25 06:23:06;;;;;;;18.88;3.20;;;;;;;;;;4934677;28;20034;-70
2023/03/25 06:25:34;;;;;;;13.85;3.17;;;;;;;;;;4931102;28;20038;-67
2023/03/25 06:28:02;;;;;;;17.60;3.00;;;;;;;;;;4907907;28;20047;-68
2023/03/25 06:30:31;;;;;;;17.33;2.70;;;;;;;;;;4932398;28;20500;-68
2023/03/25 06:33:01;;;;;;;24.42;3.05;;;;;;;;;;4930894;28;20454;-68
2023/03/25 06:35:38;;;;;;;22.65;3.05;;;;;;;;;;4930604;28;20465;-69
2023/03/25 06:38:07;;;;;;;44.92;3.88;;;;;;;;;;4936229;28;20039;-68
2023/03/25 06:40:33;;;;;;;14.90;2.60;;;;;;;;;;4915506;28;20144;-69
2023/03/25 06:43:02;;;;;;;20.95;2.97;;;;;;;;;;4916190;28;20038;-69
2023/03/25 06:45:29;;;;;;;34.58;3.63;;;;;;;;;;4938794;28;20240;-68
2023/03/25 06:47:57;;;;;;;15.38;2.10;;;;;;;;;;4915912;28;20086;-68
2023/03/25 06:50:26;;;;;;;13.25;2.40;;;;;;;;;;4919696;28;20175;-69
2023/03/25 06:52:55;;;;;;;23.25;3.65;;;;;;;;;;4933400;28;20115;-69
2023/03/25 06:55:22;;;;;;;28.00;3.05;;;;;;;;;;4934106;28;20063;-68
2023/03/25 06:57:49;;;;;;;21.98;2.63;;;;;;;;;;4917520;28;20042;-68
2023/03/25 07:00:22;;;;;;;17.15;2.60;;;;;;;;;;4931781;28;20038;-71
2023/03/25 07:02:48;;;;;;;14.63;2.60;;;;;;;;;;4927593;28;20186;-69
2023/03/25 07:05:15;;;;;;;;;;;;;;;;;;4916326;28;20038;-69
2023/03/25 07:07:44;;;;;;;23.85;2.53;;;;;;;;;;4915570;28;19980;-67
2023/03/25 07:10:13;;;;;;;15.48;2.30;;;;;;;;;;4916399;28;20035;-68
2023/03/25 07:12:42;;;;;;;15.95;2.03;;;;;;;;;;4933096;28;20687;-69
2023/03/25 07:15:08;;;;;;;12.10;2.00;;;;;;;;;;4934191;28;20040;-69
2023/03/25 07:17:36;;;;;;;14.38;2.10;;;;;;;;;;4932517;28;20031;-68
2023/03/25 07:20:06;;;;;;;14.90;1.80;;;;;;;;;;4931467;28;21208;-68
2023/03/25 07:22:34;;;;;;;11.23;2.42;;;;;;;;;;4930899;28;20053;-71
2023/03/25 07:25:03;;;;;;;17.05;2.50;;;;;;;;;;4914395;28;20031;-68
2023/03/25 07:27:31;;;;;;;19.15;2.45;;;;;;;;;;4916560;28;20128;-70
2023/03/25 07:29:59;;;;;;;12.23;2.55;;;;;;;;;;4925942;28;20185;-69
2023/03/25 07:32:26;;;;;;;19.10;2.63;;;;;;;;;;4914602;28;20062;-69
2023/03/25 07:34:53;;;;;;;12.75;2.58;;;;;;;;;;4929756;28;20415;-69
2023/03/25 07:37:20;;;;;;;13.10;2.42;;;;;;;;;;4931471;28;20279;-70
2023/03/25 07:39:46;;;;;;;10.13;1.90;;;;;;;;;;4929987;28;20066;-69
2023/03/25 07:42:14;;;;;;;;;;;;;;;;;;4934001;28;20038;-69
2023/03/25 07:44:42;;;;;;;15.52;2.70;;;;;;;;;;4935530;28;20258;-68
2023/03/25 07:47:08;;;;;;;13.82;2.67;;;;;;;;;;4932059;28;20031;-70
2023/03/25 07:49:39;;;;;;;10.80;2.50;;;;;;;;;;4930871;28;20035;-68
2023/03/25 07:52:07;;;;;;;10.63;2.47;;;;;;;;;;4911532;28;20148;-68
2023/03/25 07:54:35;;;;;;;11.18;2.55;;;;;;;;;;4931827;28;20306;-69
2023/03/25 07:57:05;;;;;;;19.23;3.00;;;;;;;;;;4930473;28;20054;-71
2023/03/25 07:59:32;;;;;;;17.85;3.10;;;;;;;;;;4929744;28;20031;-67
2023/03/25 08:01:58;;;;;;;11.45;2.38;;;;;;;;;;4914156;28;20064;-68
2023/03/25 08:04:24;;;;;;;;;;;;;;;;;;4929933;28;20055;-68
2023/03/25 08:06:53;;;;;;;18.52;3.33;;;;;;;;;;4928961;28;20485;-68
2023/03/25 08:09:21;;;;;;;13.25;2.50;;;;;;;;;;4917565;28;20497;-69
2023/03/25 08:11:48;;;;;;;15.25;2.50;;;;;;;;;;4932268;28;20030;-68
2023/03/25 08:14:16;;;;;;;54.78;5.90;;;;;;;;;;4939978;28;20113;-69
2023/03/25 08:16:43;;;;;;;24.15;3.40;;;;;;;;;;4933587;28;20402;-68
2023/03/25 08:19:10;;;;;;;24.60;3.15;;;;;;;;;;4932238;28;20041;-68
2023/03/25 08:21:37;;;;;;;17.40;2.80;;;;;;;;;;4929569;28;20067;-69
2023/03/25 08:24:03;;;;;;;12.60;2.53;;;;;;;;;;4933207;28;20035;-69
2023/03/25 08:26:30;;;;;;;13.27;2.78;;;;;;;;;;4938269;28;20041;-68
2023/03/25 08:28:58;;;;;;;12.43;2.40;;;;;;;;;;4912030;28;20037;-69
2023/03/25 08:31:29;;;;;;;12.50;2.17;;;;;;;;;;4939777;28;20477;-70
2023/03/25 08:33:59;;;;;;;20.23;2.70;;;;;;;;;;4916837;28;20090;-69
2023/03/25 08:36:26;;;;;;;10.18;2.03;;;;;;;;;;4938706;28;20540;-69
2023/03/25 08:38:54;;;;;;;12.68;3.00;;;;;;;;;;4928233;28;20814;-70
2023/03/25 08:41:21;;;;;;;11.45;2.45;;;;;;;;;;4936191;28;20469;-69
2023/03/25 08:43:49;;;;;;;12.18;2.42;;;;;;;;;;4932317;28;20089;-70
2023/03/25 08:46:18;;;;;;;13.65;2.40;;;;;;;;;;4934210;28;20047;-69
2023/03/25 08:48:44;;;;;;;17.15;2.40;;;;;;;;;;4918250;28;20033;-69
2023/03/25 08:51:12;;;;;;;26.30;2.95;;;;;;;;;;4916702;28;20663;-69
2023/03/25 08:53:40;;;;;;;12.48;2.22;;;;;;;;;;4933862;28;20039;-70
2023/03/25 08:56:09;;;;;;;22.17;2.70;;;;;;;;;;4931451;28;20072;-69
2023/03/25 08:58:36;;;;;;;17.30;2.70;;;;;;;;;;4935506;28;20114;-69
2023/03/25 09:01:03;;;;;;;18.88;2.50;;;;;;;;;;4919052;28;21338;-69
2023/03/25 09:03:57;;;;;;;10.52;2.20;;;;;;;;;;4920368;28;20082;-68
2023/03/25 09:06:23;;;;;;;11.93;2.25;;;;;;;;;;4922833;28;20030;-69
2023/03/25 09:08:54;;;;;;;12.27;2.25;;;;;;;;;;4920702;28;20027;-71
2023/03/25 09:11:23;;;;;;;9.45;2.45;;;;;;;;;;4941392;28;20402;-69
2023/03/25 09:13:49;;;;;;;11.27;2.88;;;;;;;;;;4878489;29;20647;-68
2023/03/25 09:16:17;;;;;;;10.05;2.47;;;;;;;;;;4881632;29;20261;-69
2023/03/25 09:18:44;;;;;;;10.70;2.50;;;;;;;;;;4878823;29;20091;-69
2023/03/25 09:21:12;;;;;;;8.88;1.90;;;;;;;;;;4868283;29;20035;-70
2023/03/25 09:23:38;;;;;;;14.32;2.50;;;;;;;;;;4879101;29;20040;-69
2023/03/25 09:26:06;;;;;;;10.10;2.17;;;;;;;;;;4883879;29;20032;-69
2023/03/25 09:28:33;;;;;;;12.32;2.28;;;;;;;;;;4879655;29;20139;-69
2023/03/25 09:31:00;;;;;;;12.25;2.53;;;;;;;;;;4865349;29;20059;-69
2023/03/25 09:33:28;;;;;;;8.07;2.42;;;;;;;;;;4870067;29;20051;-71
2023/03/25 09:35:57;;;;;;;9.52;2.08;;;;;;;;;;4878455;29;21762;-68
2023/03/25 09:38:24;;;;;;;9.20;2.30;;;;;;;;;;4869056;29;20184;-69
2023/03/25 09:40:52;;;;;;;13.98;2.97;;;;;;;;;;4879883;29;20294;-69
2023/03/25 09:43:36;;;;;;;28.15;3.10;;;;;;;;;;4886416;29;20035;-69
2023/03/25 09:46:06;;;;;;;31.13;3.65;;;;;;;;;;4886038;29;20076;-70
2023/03/25 09:48:45;;;;;;;24.08;2.95;;;;;;;;;;4868763;29;20028;-68
2023/03/25 09:51:23;;;;;;;9.63;1.88;;;;;;;;;;4866096;29;20051;-69
2023/03/25 09:53:49;;;;;;;28.73;2.90;;;;;;;;;;4866261;29;20040;-69
2023/03/25 09:56:19;;;;;;;21.50;2.95;;;;;;;;;;4882702;29;20021;-69
2023/03/25 09:58:49;;;;;;;16.67;2.47;;;;;;;;;;4922941;28;20501;-70
2023/03/25 10:01:28;;;;;;;13.07;2.30;;;;;;;;;;4939596;28;20523;-69
2023/03/25 10:04:17;;;;;;;13.93;2.38;;;;;;;;;;4928604;28;20471;-69
2023/03/25 10:07:04;;;;;;;10.85;2.42;;;;;;;;;;4913673;28;20177;-69
2023/03/25 10:09:50;;;;;;;13.60;2.58;;;;;;;;;;4934901;28;20464;-70
2023/03/25 10:12:33;;;;;;;22.35;2.60;;;;;;;;;;4943221;28;20030;-68
2023/03/25 10:15:19;;;;;;;19.08;3.00;;;;;;;;;;4929818;28;20049;-69
2023/03/25 10:17:47;;;;;;;;;;;;;;;;;;4934909;28;20497;-69
2023/03/25 10:20:16;;;;;;;8.20;1.77;;;;;;;;;;4931859;28;20090;-69
2023/03/25 10:22:56;;;;;;;16.48;2.47;;;;;;;;;;4927770;28;20058;-69
2023/03/25 10:25:24;;;;;;;9.45;1.95;;;;;;;;;;4931496;28;20885;-69
2023/03/25 10:27:52;;;;;;;11.27;1.92;;;;;;;;;;4933508;28;20038;-70
2023/03/25 10:30:23;;;;;;;8.82;1.75;;;;;;;;;;4920521;28;20292;-68
2023/03/25 10:33:01;;;;;;;21.15;2.33;;;;;;;;;;4927291;28;20149;-69
2023/03/25 10:35:41;;;;;;;25.70;2.88;;;;;;;;;;4934970;28;20858;-69
2023/03/25 10:38:17;;;;;;;82.82;5.80;;;;;;;;;;4914750;28;20039;-70
2023/03/25 10:40:48;;;;;;;51.58;4.45;;;;;;;;;;4933147;28;21133;-69
2023/03/25 10:43:16;;;;;;;105.18;6.57;;;;;;;;;;4922178;28;20027;-70
2023/03/25 10:45:47;;;;;;;20.02;2.60;;;;;;;;;;4930252;28;20031;-71
2023/03/25 10:48:21;;;;;;;18.40;2.60;;;;;;;;;;4938067;28;20058;-69
2023/03/25 10:50:48;;;;;;;15.07;2.65;;;;;;;;;;4935629;28;20047;-69
2023/03/25 10:53:25;;;;;;;15.23;2.45;;;;;;;;;;4929583;28;20055;-69
2023/03/25 10:55:56;;;;;;;23.77;2.78;;;;;;;;;;4914221;28;20027;-71
2023/03/25 10:58:24;;;;;;;32.33;3.33;;;;;;;;;;4933108;28;20038;-69
2023/03/25 11:00:52;;;;;;;23.60;2.70;;;;;;;;;;4930416;28;20030;-69
2023/03/25 11:03:25;;;;;;;10.77;2.10;;;;;;;;;;4934144;28;20031;-69
2023/03/25 11:05:53;;;;;;;8.40;1.90;;;;;;;;;;4912975;28;20057;-69
2023/03/25 11:08:26;;;;;;;14.98;2.20;;;;;;;;;;4931997;28;20039;-69
2023/03/25 11:10:58;;;;;;;9.38;1.77;;;;;;;;;;4920631;28;20121;-70
2023/03/25 11:13:26;;;;;;;9.35;2.33;;;;;;;;;;4934314;28;20058;-70
2023/03/25 11:15:55;;;;;;;8.43;2.10;;;;;;;;;;4914213;28;20429;-69
2023/03/25 11:18:41;;;;;;;26.02;2.78;;;;;;;;;;4905621;28;20117;-70
2023/03/25 11:21:11;;;;;;;11.40;2.08;;;;;;;;;;4933512;28;20169;-68
2023/03/25 11:23:49;;;;;;;7.40;1.98;;;;;;;;;;4909625;28;20142;-69
2023/03/25 11:26:36;;;;;;;8.48;2.40;;;;;;;;;;4920538;28;20081;-69
2023/03/25 11:29:12;;;;;;;9.77;2.10;;;;;;;;;;4935729;28;21609;-68
2023/03/25 11:31:41;;;;;;;11.73;2.47;;;;;;;;;;4916590;28;20555;-68
2023/03/25 11:34:16;;;;;;;14.98;2.60;;;;;;;;;;4902564;28;20505;-68
2023/03/25 11:36:56;;;;;;;8.20;2.30;;;;;;;;;;4910917;28;20486;-69
2023/03/25 11:39:38;;;;;;;8.98;2.42;;;;;;;;;;4918628;28;20041;-68
2023/03/25 11:42:13;;;;;;;11.63;2.53;;;;;;;;;;4913050;28;20110;-69
2023/03/25 11:44:58;;;;;;;9.13;2.20;;;;;;;;;;4928251;28;20432;-70
2023/03/25 11:47:33;;;;;;;10.02;3.00;;;;;;;;;;4931878;28;20074;-69
2023/03/25 11:50:02;;;;;;;10.07;2.60;;;;;;;;;;4929292;28;20054;-69
2023/03/25 11:52:43;;;;;;;12.52;3.35;;;;;;;;;;4934268;28;20624;-67
2023/03/25 11:55:18;;;;;;;9.07;2.55;;;;;;;;;;4936247;28;20466;-68
2023/03/25 11:57:46;;;;;;;8.57;2.53;;;;;;;;;;4931301;28;20038;-69
2023/03/25 12:00:29;;;;;;;10.88;2.67;;;;;;;;;;4931626;28;20048;-69
2023/03/25 12:03:22;;;;;;;9.27;2.50;;;;;;;;;;4916151;28;21881;-69
2023/03/25 12:06:05;;;;;;;10.77;2.45;;;;;;;;;;4928703;28;20400;-68
2023/03/25 12:08:49;;;;;;;19.75;2.88;;;;;;;;;;4921278;28;20077;-68
2023/03/25 12:11:21;;;;;;;34.60;3.47;;;;;;;;;;4937600;28;20039;-70
2023/03/25 12:13:51;;;;;;;24.55;3.65;;;;;;;;;;4938197;28;20043;-68
2023/03/25 12:16:30;;;;;;;19.63;3.00;;;;;;;;;;4917228;28;20047;-68
2023/03/25 12:19:16;;;;;;;11.55;2.47;;;;;;;;;;4933003;28;20332;-68
2023/03/25 12:22:01;;;;;;;12.05;2.30;;;;;;;;;;4930286;28;20589;-68
2023/03/25 12:24:50;;;;;;;9.15;1.92;;;;;;;;;;4934751;28;20043;-69
2023/03/25 12:27:37;;;;;;;7.82;1.73;;;;;;;;;;4885161;28;20556;-67
2023/03/25 12:30:30;;;;;;;19.70;1.92;;;;;;;;;;4940800;28;20058;-67
2023/03/25 12:33:12;;;;;;;7.95;1.60;;;;;;;;;;4899968;29;20938;-67
2023/03/25 12:35:39;;;;;;;6.53;1.65;;;;;;;;;;4897037;29;20160;-68
2023/03/25 12:38:35;;;;;;;12.55;2.33;;;;;;;;;;4882985;29;20044;-66
2023/03/25 12:41:03;;;;;;;;;;;;;;;;;;4902074;29;20027;-67
2023/03/25 12:43:49;;;;;;;8.05;1.60;;;;;;;;;;4902218;29;19958;-66
2023/03/25 12:46:22;;;;;;;5.65;1.40;;;;;;;;;;4902242;29;20359;-67
2023/03/25 12:49:00;;;;;;;8.70;1.98;;;;;;;;;;4899492;29;20360;-67
2023/03/25 12:51:45;;;;;;;9.80;2.42;;;;;;;;;;4900203;29;20920;-67
2023/03/25 12:54:33;;;;;;;6.90;1.70;;;;;;;;;;4901813;29;20581;-67
2023/03/25 12:57:18;;;;;;;12.30;1.92;;;;;;;;;;4898884;29;20355;-67
2023/03/25 13:00:00;;;;;;;7.45;1.48;;;;;;;;;;4897323;29;20161;-67
2023/03/25 13:02:36;;;;;;;7.78;1.45;;;;;;;;;;4902826;29;20039;-67
2023/03/25 13:05:22;;;;;;;4.72;1.23;;;;;;;;;;4938074;28;20248;-68
2023/03/25 13:07:52;;;;;;;7.07;1.60;;;;;;;;;;4939256;28;20038;-67
2023/03/25 13:10:23;;;;;;;4.80;1.33;;;;;;;;;;4918226;28;20595;-66
2023/03/25 13:12:49;;;;;;;5.32;1.40;;;;;;;;;;4939437;28;20184;-67
2023/03/25 13:15:34;;;;;;;4.75;1.08;;;;;;;;;;4924650;28;20618;-68
2023/03/25 13:18:15;;;;;;;7.28;1.70;;;;;;;;;;4939611;28;20597;-66
2023/03/25 13:21:05;;;;;;;5.72;1.42;;;;;;;;;;4938945;28;20604;-68
2023/03/25 13:23:35;;;;;;;6.63;1.35;;;;;;;;;;4917253;28;20073;-68
2023/03/25 13:26:13;;;;;;;4.25;1.15;;;;;;;;;;4909277;28;20172;-68
2023/03/25 13:28:47;;;;;;;4.43;1.38;;;;;;;;;;4936971;28;20606;-67
2023/03/25 13:31:19;;;;;;;5.28;1.10;;;;;;;;;;4939293;28;20037;-67
2023/03/25 13:33:50;;;;;;;5.60;1.08;;;;;;;;;;4937731;28;20591;-67
2023/03/25 13:36:32;;;;;;;4.53;1.05;;;;;;;;;;4923582;28;20561;-67
2023/03/25 13:39:08;;;;;;;6.38;1.20;;;;;;;;;;4906401;28;20039;-68
2023/03/25 13:41:42;;;;;;;5.80;1.52;;;;;;;;;;4926074;28;20378;-67
2023/03/25 13:44:42;;;;;;;5.55;1.45;;;;;;;;;;4925880;28;20081;-67
2023/03/25 13:47:32;;;;;;;7.72;3.58;;;;;;;;;;4865557;29;20075;-67
2023/03/25 13:50:06;;;;;;;5.10;1.30;;;;;;;;;;4860717;29;20049;-68
2023/03/25 13:52:36;;;;;;;6.97;1.42;;;;;;;;;;4862528;29;20476;-68
2023/03/25 13:55:13;;;;;;;6.00;1.50;;;;;;;;;;4863639;29;20196;-70
2023/03/25 13:57:45;;;;;;;5.55;1.70;;;;;;;;;;4842360;29;20462;-67
2023/03/25 14:00:23;;;;;;;5.90;1.80;;;;;;;;;;4860646;29;21126;-68
2023/03/25 14:03:08;;;;;;;6.45;1.58;;;;;;;;;;4861707;29;20523;-67
2023/03/25 14:05:58;;;;;;;4.85;1.10;;;;;;;;;;4863324;29;20041;-67
2023/03/25 14:08:43;;;;;;;5.07;1.23;;;;;;;;;;4865072;29;20553;-67
2023/03/25 14:11:21;;;;;;;4.40;1.00;;;;;;;;;;4862223;29;20068;-69
2023/03/25 14:13:51;;;;;;;5.45;1.30;;;;;;;;;;4861039;29;20028;-67
2023/03/25 14:16:21;;;;;;;4.53;1.10;;;;;;;;;;4864428;29;20125;-67
2023/03/25 14:18:50;;;;;;;3.65;1.00;;;;;;;;;;4839260;29;20163;-68
2023/03/25 14:21:37;;;;;;;6.57;1.20;;;;;;;;;;4864071;29;20048;-68
2023/03/25 14:24:06;;;;;;;5.43;1.60;;;;;;;;;;4925527;28;20074;-68
2023/03/25 14:26:36;;;;;;;6.03;1.50;;;;;;;;;;4893093;29;20432;-67
2023/03/25 14:29:25;;;;;;;5.35;1.70;;;;;;;;;;4918704;28;20515;-67
2023/03/25 14:32:19;;;;;;;5.15;1.50;;;;;;;;;;4922989;28;20616;-68
2023/03/25 14:34:49;;;;;;;;;;;;;;;;;;4902211;28;20519;-68
2023/03/25 14:37:24;;;;;;;5.97;1.42;;;;;;;;;;4921050;28;19937;-66
2023/03/25 14:39:53;;;;;;;5.35;1.10;;;;;;;;;;4913428;28;20589;-66
2023/03/25 14:42:40;;;;;;;4.20;0.80;;;;;;;;;;4921546;28;20107;-67
2023/03/25 14:45:28;;;;;;;2.97;0.90;;;;;;;;;;4920565;28;20194;-67
2023/03/25 14:47:57;;;;;;;3.97;0.93;;;;;;;;;;4914361;28;20359;-67
2023/03/25 14:50:26;;;;;;;5.68;1.50;;;;;;;;;;4923934;28;20050;-67
2023/03/25 14:53:10;;;;;;;4.63;1.15;;;;;;;;;;4918181;28;20027;-67
2023/03/25 14:55:46;;;;;;;3.13;0.80;;;;;;;;;;4916942;28;20146;-68
2023/03/25 14:58:27;;;;;;;3.85;0.90;;;;;;;;;;4920603;28;20035;-67
2023/03/25 15:01:01;;;;;;;4.32;1.10;;;;;;;;;;4900960;29;20129;-68
2023/03/25 15:03:35;;;;;;;4.35;1.10;;;;;;;;;;4918734;28;20039;-68
2023/03/25 15:06:01;;;;;;;4.37;1.20;;;;;;;;;;4923130;28;20251;-67
2023/03/25 15:08:40;;;;;;;3.72;0.90;;;;;;;;;;4919795;28;20305;-68
2023/03/25 15:11:17;;;;;;;5.20;1.23;;;;;;;;;;4917992;28;20277;-67